createdAt,value
2023-04-16T00:01:22.874Z,100475.69
2023-04-16T00:03:50.986Z,100465.53
2023-04-16T00:06:19.495Z,100470.31
2023-04-16T00:08:47.771Z,100467.47
2023-04-16T00:11:15.978Z,100477.75
2023-04-16T00:13:44.160Z,100483.47
2023-04-16T00:16:13.155Z,100477.00
2023-04-16T00:18:43.377Z,100481.63
2023-04-16T00:21:11.374Z,100478.09
2023-04-16T00:23:39.629Z,100484.94
2023-04-16T00:26:07.546Z,100475.78
2023-04-16T00:28:35.449Z,100485.13
2023-04-16T00:31:03.360Z,100485.50
2023-04-16T00:33:31.286Z,100480.75
2023-04-16T00:36:00.774Z,100484.38
2023-04-16T00:38:30.467Z,100486.72
2023-04-16T00:40:58.707Z,100482.66
2023-04-16T00:43:27.693Z,100482.34
2023-04-16T00:45:57.780Z,100489.81
2023-04-16T00:48:28.042Z,100489.91
2023-04-16T00:50:56.460Z,100493.50
2023-04-16T00:53:25.755Z,100490.03
2023-04-16T00:55:56.114Z,100493.47
2023-04-16T00:58:25.035Z,100492.50
2023-04-16T01:00:53.613Z,100488.72
2023-04-16T01:03:21.534Z,100484.94
2023-04-16T01:05:51.232Z,100483.63
2023-04-16T01:08:20.220Z,100479.50
2023-04-16T01:10:49.651Z,100484.28
2023-04-16T01:13:17.706Z,100482.91
2023-04-16T01:15:45.948Z,100483.22
2023-04-16T01:18:17.525Z,100480.38
2023-04-16T01:20:47.049Z,100485.25
2023-04-16T01:23:15.522Z,100488.66
2023-04-16T01:25:43.226Z,100490.00
2023-04-16T01:28:11.047Z,100499.03
2023-04-16T01:30:40.037Z,100494.88
2023-04-16T01:33:18.044Z,100488.31
2023-04-16T01:35:47.160Z,100497.22
2023-04-16T01:38:17.157Z,100502.13
2023-04-16T01:40:44.889Z,100498.19
2023-04-16T01:43:13.216Z,100496.81
2023-04-16T01:45:41.040Z,100504.00
2023-04-16T01:48:10.248Z,100508.31
2023-04-16T01:50:38.836Z,100504.97
2023-04-16T01:53:09.670Z,100510.84
2023-04-16T01:55:37.741Z,100506.31
2023-04-16T01:58:07.416Z,100506.81
2023-04-16T02:00:36.675Z,100513.91
2023-04-16T02:03:04.958Z,100511.16
2023-04-16T02:05:33.105Z,100509.03
2023-04-16T02:08:01.381Z,100508.72
2023-04-16T02:10:30.791Z,100508.16
2023-04-16T02:12:59.328Z,100508.81
2023-04-16T02:15:27.394Z,100508.84
2023-04-16T02:17:57.373Z,100512.13
2023-04-16T02:20:26.888Z,100514.31
2023-04-16T02:23:00.699Z,100516.56
2023-04-16T02:25:30.702Z,100513.75
2023-04-16T02:28:00.226Z,100523.28
2023-04-16T02:30:41.542Z,100530.06
2023-04-16T02:33:12.110Z,100531.94
2023-04-16T02:35:45.122Z,100525.88
2023-04-16T02:38:13.871Z,100525.38
2023-04-16T02:40:43.854Z,100530.03
2023-04-16T02:43:12.151Z,100532.06
2023-04-16T02:45:40.183Z,100534.78
2023-04-16T02:48:09.696Z,100530.63
2023-04-16T02:50:37.745Z,100527.97
2023-04-16T02:53:06.608Z,100533.78
2023-04-16T02:55:34.553Z,100535.34
2023-04-16T02:58:04.743Z,100534.94
2023-04-16T03:00:33.037Z,100531.50
2023-04-16T03:03:01.880Z,100536.66
2023-04-16T03:05:30.380Z,100537.09
2023-04-16T03:07:58.173Z,100534.41
2023-04-16T03:10:26.498Z,100526.47
2023-04-16T03:12:54.229Z,100521.78
2023-04-16T03:15:23.458Z,100531.75
2023-04-16T03:17:51.363Z,100529.41
2023-04-16T03:20:19.152Z,100534.22
2023-04-16T03:22:47.048Z,100532.34
2023-04-16T03:25:14.984Z,100530.38
2023-04-16T03:27:42.789Z,100533.91
2023-04-16T03:30:13.728Z,100536.81
2023-04-16T03:32:43.461Z,100544.50
2023-04-16T03:35:12.791Z,100533.16
2023-04-16T03:37:40.857Z,100547.53
2023-04-16T03:40:10.036Z,100549.38
2023-04-16T03:42:38.580Z,100560.50
2023-04-16T03:45:09.397Z,100557.81
2023-04-16T03:47:38.880Z,100559.91
2023-04-16T03:50:09.052Z,100568.53
2023-04-16T03:52:37.512Z,100565.25
2023-04-16T03:55:06.031Z,100567.06
2023-04-16T03:58:09.086Z,100558.97
2023-04-16T04:00:36.861Z,100570.16
2023-04-16T04:03:12.651Z,100565.00
2023-04-16T04:05:43.020Z,100564.59
2023-04-16T04:08:12.575Z,100560.63
2023-04-16T04:10:40.289Z,100569.56
2023-04-16T04:13:09.727Z,100560.44
2023-04-16T04:15:37.888Z,100563.13
2023-04-16T04:18:06.518Z,100566.56
2023-04-16T04:20:34.780Z,100575.06
2023-04-16T04:23:05.049Z,100563.16
2023-04-16T04:25:32.986Z,100573.66
2023-04-16T04:28:01.279Z,100573.53
2023-04-16T04:30:29.976Z,100577.53
2023-04-16T04:32:58.288Z,100586.69
2023-04-16T04:35:26.236Z,100582.56
2023-04-16T04:37:54.511Z,100580.56
2023-04-16T04:40:24.320Z,100594.38
2023-04-16T04:42:53.573Z,100595.13
2023-04-16T04:45:25.613Z,100592.66
2023-04-16T04:47:54.899Z,100594.53
2023-04-16T04:50:23.421Z,100602.00
2023-04-16T04:52:51.252Z,100602.69
2023-04-16T04:55:19.294Z,100604.28
2023-04-16T04:57:48.594Z,100609.69
2023-04-16T05:00:16.558Z,100600.28
2023-04-16T05:02:52.063Z,100609.91
2023-04-16T05:05:20.515Z,100608.22
2023-04-16T05:07:48.503Z,100615.81
2023-04-16T05:10:16.318Z,100619.94
2023-04-16T05:12:44.003Z,100625.25
2023-04-16T05:15:13.673Z,100622.75
2023-04-16T05:17:41.570Z,100629.56
2023-04-16T05:20:10.622Z,100628.19
2023-04-16T05:22:39.126Z,100624.75
2023-04-16T05:25:07.533Z,100627.41
2023-04-16T05:27:35.348Z,100641.75
2023-04-16T05:30:03.081Z,100636.81
2023-04-16T05:32:32.368Z,100637.78
2023-04-16T05:35:00.296Z,100633.63
2023-04-16T05:37:28.004Z,100641.22
2023-04-16T05:39:55.750Z,100636.13
2023-04-16T05:42:24.003Z,100649.09
2023-04-16T05:44:52.308Z,100642.28
2023-04-16T05:47:20.043Z,100647.97
2023-04-16T05:49:49.082Z,100653.91
2023-04-16T05:52:17.000Z,100646.38
2023-04-16T05:54:44.747Z,100646.97
2023-04-16T05:57:12.725Z,100658.09
2023-04-16T05:59:40.664Z,100662.66
2023-04-16T06:02:08.541Z,100657.22
2023-04-16T06:04:37.512Z,100653.28
2023-04-16T06:07:06.974Z,100661.81
2023-04-16T06:09:35.211Z,100668.25
2023-04-16T06:12:03.317Z,100661.94
2023-04-16T06:14:31.073Z,100659.34
2023-04-16T06:16:58.768Z,100669.00
2023-04-16T06:19:26.562Z,100671.69
2023-04-16T06:21:54.615Z,100666.41
2023-04-16T06:24:23.930Z,100669.94
2023-04-16T06:26:51.859Z,100674.31
2023-04-16T06:29:21.323Z,100677.53
2023-04-16T06:31:50.356Z,100676.88
2023-04-16T06:34:19.417Z,100678.50
2023-04-16T06:36:47.455Z,100670.91
2023-04-16T06:39:15.208Z,100683.25
2023-04-16T06:41:44.488Z,100681.28
2023-04-16T06:44:13.438Z,100673.69
2023-04-16T06:46:41.589Z,100679.69
2023-04-16T06:49:09.475Z,100682.69
2023-04-16T06:51:37.421Z,100686.84
2023-04-16T06:54:05.479Z,100680.50
2023-04-16T06:56:33.267Z,100690.97
2023-04-16T06:59:02.485Z,100694.47
2023-04-16T07:01:31.933Z,100689.38
2023-04-16T07:03:59.907Z,100686.03
2023-04-16T07:06:28.054Z,100689.09
2023-04-16T07:08:56.044Z,100683.13
2023-04-16T07:11:26.096Z,100689.19
2023-04-16T07:13:54.180Z,100679.59
2023-04-16T07:16:23.625Z,100687.97
2023-04-16T07:18:51.543Z,100678.00
2023-04-16T07:21:19.916Z,100686.78
2023-04-16T07:23:48.028Z,100681.50
2023-04-16T07:26:16.040Z,100682.97
2023-04-16T07:28:43.670Z,100688.41
2023-04-16T07:31:11.698Z,100680.84
2023-04-16T07:33:41.661Z,100686.97
2023-04-16T07:36:09.371Z,100686.88
2023-04-16T07:38:37.356Z,100696.25
2023-04-16T07:41:05.275Z,100696.25
2023-04-16T07:43:33.303Z,100703.56
2023-04-16T07:46:01.384Z,100698.63
2023-04-16T07:48:29.638Z,100704.34
2023-04-16T07:50:59.064Z,100696.44
2023-04-16T07:53:28.552Z,100704.50
2023-04-16T07:55:56.492Z,100699.13
2023-04-16T07:58:25.477Z,100699.31
2023-04-16T08:00:53.477Z,100701.41
2023-04-16T08:03:21.630Z,100709.03
2023-04-16T08:05:49.655Z,100698.31
2023-04-16T08:08:18.829Z,100708.03
2023-04-16T08:10:46.968Z,100709.03
2023-04-16T08:13:14.656Z,100714.38
2023-04-16T08:15:42.323Z,100709.72
2023-04-16T08:18:12.870Z,100715.38
2023-04-16T08:20:40.786Z,100721.56
2023-04-16T08:23:09.254Z,100724.59
2023-04-16T08:25:38.372Z,100724.19
2023-04-16T08:28:06.716Z,100735.78
2023-04-16T08:30:35.090Z,100729.78
2023-04-16T08:33:03.015Z,100735.31
2023-04-16T08:35:31.053Z,100744.88
2023-04-16T08:38:02.131Z,100744.47
2023-04-16T08:40:30.988Z,100751.19
2023-04-16T08:43:01.195Z,100747.28
2023-04-16T08:45:30.989Z,100747.41
2023-04-16T08:47:59.351Z,100746.47
2023-04-16T08:50:30.505Z,100750.06
2023-04-16T08:53:00.710Z,100748.50
2023-04-16T08:55:36.401Z,100749.41
2023-04-16T08:58:10.531Z,100757.38
2023-04-16T09:00:41.190Z,100759.25
2023-04-16T09:03:10.276Z,100756.16
2023-04-16T09:05:39.040Z,100754.19
2023-04-16T09:08:07.736Z,100764.00
2023-04-16T09:10:36.409Z,100763.38
2023-04-16T09:13:06.125Z,100760.13
2023-04-16T09:15:36.619Z,100771.41
2023-04-16T09:18:04.636Z,100759.22
2023-04-16T09:20:33.305Z,100770.28
2023-04-16T09:23:01.315Z,100762.34
2023-04-16T09:25:30.365Z,100776.41
2023-04-16T09:27:58.799Z,100772.78
2023-04-16T09:30:28.877Z,100771.03
2023-04-16T09:33:16.521Z,100766.72
2023-04-16T09:35:48.678Z,100772.03
2023-04-16T09:38:17.349Z,100775.63
2023-04-16T09:40:47.385Z,100777.19
2023-04-16T09:43:16.929Z,100773.88
2023-04-16T09:45:56.515Z,100780.09
2023-04-16T09:48:31.467Z,100773.91
2023-04-16T09:51:00.515Z,100779.94
2023-04-16T09:53:30.675Z,100786.75
2023-04-16T09:55:59.201Z,100779.72
2023-04-16T09:58:27.536Z,100776.13
2023-04-16T10:01:02.418Z,100777.31
2023-04-16T10:03:31.781Z,100790.56
2023-04-16T10:06:02.284Z,100786.03
2023-04-16T10:08:30.658Z,100789.47
2023-04-16T10:10:59.214Z,100789.53
2023-04-16T10:13:31.552Z,100793.19
2023-04-16T10:16:01.653Z,100789.97
2023-04-16T10:18:30.592Z,100786.69
2023-04-16T10:20:58.826Z,100790.69
2023-04-16T10:23:28.277Z,100795.09
2023-04-16T10:26:01.117Z,100797.72
2023-04-16T10:28:29.529Z,100798.09
2023-04-16T10:30:59.432Z,100791.41
2023-04-16T10:33:30.776Z,100796.63
2023-04-16T10:36:12.085Z,100799.97
2023-04-16T10:38:41.375Z,100795.72
2023-04-16T10:41:10.011Z,100802.97
2023-04-16T10:43:42.586Z,100798.09
2023-04-16T10:46:21.745Z,100806.22
2023-04-16T10:48:54.702Z,100801.16
2023-04-16T10:51:31.607Z,100802.78
2023-04-16T10:54:04.972Z,100802.09
2023-04-16T10:56:35.118Z,100795.28
2023-04-16T10:59:06.149Z,100805.03
2023-04-16T11:01:39.667Z,100800.00
2023-04-16T11:04:31.220Z,100799.34
2023-04-16T11:07:04.291Z,100796.72
2023-04-16T11:09:53.549Z,100795.41
2023-04-16T11:12:23.116Z,100800.50
2023-04-16T11:14:52.429Z,100801.50
2023-04-16T11:17:21.062Z,100804.53
2023-04-16T11:19:59.137Z,100799.28
2023-04-16T11:22:28.620Z,100795.41
2023-04-16T11:24:57.295Z,100798.16
2023-04-16T11:27:25.577Z,100801.19
2023-04-16T11:30:01.921Z,100799.50
2023-04-16T11:32:32.423Z,100803.00
2023-04-16T11:35:04.354Z,100804.84
2023-04-16T11:37:36.163Z,100796.28
2023-04-16T11:40:10.789Z,100797.88
2023-04-16T11:42:41.977Z,100797.75
2023-04-16T11:45:12.089Z,100798.16
2023-04-16T11:47:47.811Z,100795.41
2023-04-16T11:50:22.464Z,100800.53
2023-04-16T11:52:51.871Z,100798.63
2023-04-16T11:55:20.617Z,100799.59
2023-04-16T11:57:49.175Z,100797.72
2023-04-16T12:00:21.783Z,100798.00
2023-04-16T12:02:55.885Z,100799.19
2023-04-16T12:05:31.006Z,100798.03
2023-04-16T12:07:59.823Z,100794.66
2023-04-16T12:10:28.553Z,100791.72
2023-04-16T12:13:10.346Z,100800.97
2023-04-16T12:15:47.479Z,100797.53
2023-04-16T12:18:16.262Z,100792.22
2023-04-16T12:20:46.934Z,100787.41
2023-04-16T12:23:25.444Z,100797.69
2023-04-16T12:25:53.931Z,100801.34
2023-04-16T12:28:30.091Z,100807.06
2023-04-16T12:30:59.339Z,100803.47
2023-04-16T12:33:28.318Z,100812.72
2023-04-16T12:35:58.545Z,100808.97
2023-04-16T12:38:27.110Z,100810.06
2023-04-16T12:40:57.512Z,100814.25
2023-04-16T12:43:26.000Z,100811.50
2023-04-16T12:45:53.993Z,100816.41
2023-04-16T12:48:21.884Z,100815.28
2023-04-16T12:50:50.510Z,100807.81
2023-04-16T12:53:20.538Z,100809.56
2023-04-16T12:55:49.530Z,100816.28
2023-04-16T12:58:17.943Z,100803.00
2023-04-16T13:00:52.413Z,100816.84
2023-04-16T13:03:22.277Z,100813.44
2023-04-16T13:05:51.929Z,100813.09
2023-04-16T13:08:21.752Z,100814.06
2023-04-16T13:10:54.779Z,100817.06
2023-04-16T13:13:23.131Z,100820.72
2023-04-16T13:15:54.424Z,100819.59
2023-04-16T13:18:23.107Z,100821.88
2023-04-16T13:20:52.736Z,100823.06
2023-04-16T13:23:23.203Z,100824.34
2023-04-16T13:25:52.314Z,100823.22
2023-04-16T13:28:20.149Z,100818.13
2023-04-16T13:30:48.854Z,100818.03
2023-04-16T13:33:17.607Z,100818.56
2023-04-16T13:35:46.400Z,100822.84
2023-04-16T13:38:14.259Z,100821.19
2023-04-16T13:40:52.587Z,100822.88
2023-04-16T13:43:23.900Z,100831.25
2023-04-16T13:45:54.285Z,100831.50
2023-04-16T13:48:22.548Z,100827.88
2023-04-16T13:50:50.640Z,100833.38
2023-04-16T13:53:18.859Z,100838.97
2023-04-16T13:55:49.662Z,100828.41
2023-04-16T13:58:17.878Z,100830.72
2023-04-16T14:00:48.939Z,100827.66
2023-04-16T14:03:17.457Z,100831.28
2023-04-16T14:05:45.525Z,100827.38
2023-04-16T14:08:14.933Z,100833.06
2023-04-16T14:10:42.969Z,100831.41
2023-04-16T14:13:13.374Z,100828.88
2023-04-16T14:15:41.850Z,100835.00
2023-04-16T14:18:10.260Z,100833.31
2023-04-16T14:20:41.084Z,100836.59
2023-04-16T14:23:09.176Z,100833.19
2023-04-16T14:25:38.736Z,100832.34
2023-04-16T14:28:08.962Z,100831.44
2023-04-16T14:30:38.399Z,100825.91
2023-04-16T14:33:07.495Z,100829.25
2023-04-16T14:35:36.131Z,100826.53
2023-04-16T14:38:04.208Z,100824.97
2023-04-16T14:40:33.352Z,100825.75
2023-04-16T14:43:02.183Z,100817.56
2023-04-16T14:45:32.297Z,100821.00
2023-04-16T14:48:01.632Z,100811.88
2023-04-16T14:50:29.781Z,100815.06
2023-04-16T14:52:58.583Z,100814.06
2023-04-16T14:55:27.447Z,100813.38
2023-04-16T14:57:56.573Z,100812.44
2023-04-16T15:00:26.382Z,100809.31
2023-04-16T15:02:55.095Z,100812.94
2023-04-16T15:05:24.608Z,100815.38
2023-04-16T15:07:53.005Z,100806.31
2023-04-16T15:10:26.491Z,100809.41
2023-04-16T15:12:56.893Z,100817.09
2023-04-16T15:15:24.910Z,100810.09
2023-04-16T15:17:53.093Z,100808.38
2023-04-16T15:20:21.006Z,100815.63
2023-04-16T15:22:50.947Z,100813.28
2023-04-16T15:25:18.980Z,100810.56
2023-04-16T15:27:47.158Z,100810.94
2023-04-16T15:30:31.819Z,100811.78
2023-04-16T15:33:01.534Z,100812.50
2023-04-16T15:35:30.397Z,100811.50
2023-04-16T15:37:59.810Z,100815.53
2023-04-16T15:40:31.494Z,100813.75
2023-04-16T15:42:59.734Z,100813.66
2023-04-16T15:45:28.227Z,100819.19
2023-04-16T15:47:56.603Z,100817.16
2023-04-16T15:50:31.338Z,100818.09
2023-04-16T15:53:01.782Z,100817.16
2023-04-16T15:55:31.970Z,100822.47
2023-04-16T15:58:00.265Z,100812.16
2023-04-16T16:00:29.129Z,100817.66
2023-04-16T16:02:57.389Z,100813.59
2023-04-16T16:05:25.712Z,100822.50
2023-04-16T16:07:54.137Z,100833.09
2023-04-16T16:10:33.187Z,100819.22
2023-04-16T16:13:06.117Z,100818.31
2023-04-16T16:15:34.154Z,100820.94
2023-04-16T16:18:02.237Z,100827.03
2023-04-16T16:20:30.728Z,100822.72
2023-04-16T16:22:58.936Z,100823.69
2023-04-16T16:25:29.085Z,100830.94
2023-04-16T16:27:56.996Z,100830.88
2023-04-16T16:30:33.037Z,100835.69
2023-04-16T16:33:03.094Z,100832.38
2023-04-16T16:35:31.295Z,100839.19
2023-04-16T16:37:59.407Z,100838.63
2023-04-16T16:40:29.514Z,100844.47
2023-04-16T16:42:57.801Z,100836.59
2023-04-16T16:45:27.179Z,100841.25
2023-04-16T16:47:55.463Z,100840.22
2023-04-16T16:50:24.567Z,100846.09
2023-04-16T16:52:52.440Z,100842.38
2023-04-16T16:55:20.928Z,100846.63
2023-04-16T16:57:50.348Z,100844.00
2023-04-16T17:00:21.378Z,100843.00
2023-04-16T17:02:51.130Z,100846.28
2023-04-16T17:05:19.819Z,100847.22
2023-04-16T17:07:48.646Z,100851.53
2023-04-16T17:10:20.269Z,100852.34
2023-04-16T17:12:48.336Z,100857.56
2023-04-16T17:15:20.591Z,100856.69
2023-04-16T17:17:49.559Z,100861.84
2023-04-16T17:20:18.039Z,100866.44
2023-04-16T17:22:46.757Z,100862.41
2023-04-16T17:25:15.119Z,100861.66
2023-04-16T17:27:43.468Z,100865.13
2023-04-16T17:30:13.223Z,100867.78
2023-04-16T17:32:42.772Z,100865.28
2023-04-16T17:35:11.350Z,100865.25
2023-04-16T17:37:39.464Z,100872.13
2023-04-16T17:40:10.109Z,100877.41
2023-04-16T17:42:38.794Z,100880.19
2023-04-16T17:45:10.869Z,100886.28
2023-04-16T17:47:39.772Z,100884.66
2023-04-16T17:50:10.515Z,100890.91
2023-04-16T17:52:40.438Z,100889.31
2023-04-16T17:55:09.404Z,100888.53
2023-04-16T17:57:37.389Z,100897.28
2023-04-16T18:00:10.854Z,100905.09
2023-04-16T18:02:41.964Z,100901.66
2023-04-16T18:05:12.117Z,100906.03
2023-04-16T18:07:40.312Z,100912.97
2023-04-16T18:10:09.985Z,100907.75
2023-04-16T18:12:38.197Z,100907.88
2023-04-16T18:15:07.051Z,100904.47
2023-04-16T18:17:35.277Z,100908.94
2023-04-16T18:20:05.575Z,100914.25
2023-04-16T18:22:35.118Z,100916.78
2023-04-16T18:25:03.545Z,100917.59
2023-04-16T18:27:34.376Z,100921.09
2023-04-16T18:30:04.343Z,100924.59
2023-04-16T18:32:33.264Z,100925.50
2023-04-16T18:35:02.093Z,100923.78
2023-04-16T18:37:30.423Z,100930.78
2023-04-16T18:39:59.666Z,100930.78
2023-04-16T18:42:29.375Z,100929.00
2023-04-16T18:44:57.300Z,100930.75
2023-04-16T18:47:26.517Z,100937.81
2023-04-16T18:49:54.948Z,100938.75
2023-04-16T18:52:22.948Z,100934.53
2023-04-16T18:54:51.466Z,100937.38
2023-04-16T18:57:21.030Z,100936.50
2023-04-16T18:59:48.816Z,100940.06
2023-04-16T19:02:17.123Z,100940.94
2023-04-16T19:04:45.171Z,100941.00
2023-04-16T19:07:13.547Z,100942.75
2023-04-16T19:09:41.816Z,100942.13
2023-04-16T19:12:10.414Z,100943.81
2023-04-16T19:14:39.893Z,100945.56
2023-04-16T19:17:07.702Z,100949.19
2023-04-16T19:19:37.819Z,100944.09
2023-04-16T19:22:08.432Z,100947.66
2023-04-16T19:24:36.514Z,100952.13
2023-04-16T19:27:04.523Z,100952.25
2023-04-16T19:29:34.212Z,100952.38
2023-04-16T19:32:03.952Z,100957.56
2023-04-16T19:34:32.944Z,100943.84
2023-04-16T19:37:01.817Z,100953.44
2023-04-16T19:39:30.274Z,100955.13
2023-04-16T19:42:01.748Z,100954.28
2023-04-16T19:44:30.825Z,100963.91
2023-04-16T19:46:59.080Z,100954.38
2023-04-16T19:49:34.763Z,100955.34
2023-04-16T19:52:02.890Z,100954.59
2023-04-16T19:54:33.780Z,100956.22
2023-04-16T19:57:01.721Z,100961.56
2023-04-16T19:59:29.802Z,100961.66
2023-04-16T20:01:58.168Z,100965.13
2023-04-16T20:04:26.559Z,100967.72
2023-04-16T20:06:57.986Z,100961.66
2023-04-16T20:09:26.387Z,100966.88
2023-04-16T20:11:54.384Z,100968.63
2023-04-16T20:14:22.465Z,100971.19
2023-04-16T20:16:50.747Z,100974.69
2023-04-16T20:19:19.562Z,100982.44
2023-04-16T20:21:48.199Z,100974.75
2023-04-16T20:24:17.811Z,100972.16
2023-04-16T20:26:45.933Z,100974.78
2023-04-16T20:29:14.786Z,100977.41
2023-04-16T20:31:44.557Z,100970.50
2023-04-16T20:34:12.909Z,100965.47
2023-04-16T20:36:42.024Z,100977.47
2023-04-16T20:39:10.988Z,100974.13
2023-04-16T20:41:44.386Z,100970.69
2023-04-16T20:44:18.382Z,100970.81
2023-04-16T20:46:50.125Z,100976.75
2023-04-16T20:49:19.052Z,100975.03
2023-04-16T20:51:47.461Z,100972.66
2023-04-16T20:54:18.339Z,100963.03
2023-04-16T20:56:47.691Z,100971.91
2023-04-16T20:59:15.681Z,100967.38
2023-04-16T21:01:44.045Z,100965.81
2023-04-16T21:04:13.702Z,100970.94
2023-04-16T21:06:43.179Z,100967.47
2023-04-16T21:09:11.768Z,100968.41
2023-04-16T21:11:40.214Z,100971.91
2023-04-16T21:14:09.510Z,100975.28
2023-04-16T21:16:37.432Z,100970.09
2023-04-16T21:19:06.916Z,100971.19
2023-04-16T21:21:35.776Z,100972.03
2023-04-16T21:24:03.867Z,100975.50
2023-04-16T21:26:33.934Z,100983.31
2023-04-16T21:29:02.265Z,100977.25
2023-04-16T21:31:32.368Z,100975.63
2023-04-16T21:34:00.602Z,100974.03
2023-04-16T21:36:29.228Z,100967.19
2023-04-16T21:38:57.483Z,100970.59
2023-04-16T21:41:25.654Z,100968.84
2023-04-16T21:43:53.542Z,100967.31
2023-04-16T21:46:21.608Z,100967.06
2023-04-16T21:48:51.442Z,100963.84
2023-04-16T21:51:20.188Z,100965.03
2023-04-16T21:53:47.883Z,100964.47
2023-04-16T21:56:15.889Z,100960.13
2023-04-16T21:58:43.612Z,100958.59
2023-04-16T22:01:11.374Z,100957.81
2023-04-16T22:03:40.887Z,100954.31
2023-04-16T22:06:10.172Z,100955.09
2023-04-16T22:08:37.963Z,100954.41
2023-04-16T22:11:05.858Z,100962.84
2023-04-16T22:13:33.981Z,100963.97
2023-04-16T22:16:02.314Z,100951.06
2023-04-16T22:18:33.828Z,100952.63
2023-04-16T22:21:02.865Z,100960.56
2023-04-16T22:23:31.871Z,100961.56
2023-04-16T22:25:59.641Z,100958.97
2023-04-16T22:28:27.664Z,100961.69
2023-04-16T22:30:55.388Z,100964.19
2023-04-16T22:33:23.753Z,100961.53
2023-04-16T22:35:51.650Z,100956.38
2023-04-16T22:38:19.640Z,100951.19
2023-04-16T22:40:49.713Z,100958.94
2023-04-16T22:43:17.995Z,100956.25
2023-04-16T22:45:47.217Z,100959.75
2023-04-16T22:48:15.480Z,100953.81
2023-04-16T22:50:48.295Z,100960.81
2023-04-16T22:53:16.264Z,100957.38
2023-04-16T22:55:44.540Z,100959.84
2023-04-16T22:58:13.923Z,100961.69
2023-04-16T23:00:41.857Z,100966.13
2023-04-16T23:03:10.027Z,100966.13
2023-04-16T23:05:38.691Z,100963.41
2023-04-16T23:08:07.098Z,100962.59
2023-04-16T23:10:35.090Z,100965.19
2023-04-16T23:13:16.956Z,100973.91
2023-04-16T23:15:47.323Z,100959.88
2023-04-16T23:18:15.443Z,100962.69
2023-04-16T23:20:43.156Z,100963.84
2023-04-16T23:23:11.122Z,100969.59
2023-04-16T23:25:39.144Z,100964.53
2023-04-16T23:28:06.780Z,100957.47
2023-04-16T23:30:35.257Z,100961.81
2023-04-16T23:33:04.343Z,100964.53
2023-04-16T23:35:32.244Z,100967.00
2023-04-16T23:38:00.426Z,100968.00
2023-04-16T23:40:28.352Z,100965.41
2023-04-16T23:42:56.054Z,100964.75
2023-04-16T23:45:23.822Z,100959.31
2023-04-16T23:47:51.874Z,100962.97
2023-04-16T23:50:21.184Z,100969.94
2023-04-16T23:52:49.277Z,100962.06
2023-04-16T23:55:17.089Z,100959.69
2023-04-16T23:57:45.516Z,100958.91
